sensor_id;sensor_type;location;lat;lon;timestamp;pressure;altitude;pressure_sealevel;temperature;humidity
65384;BME280;51986;52.788;41.368;2023-05-16T00:01:32;99788.47;;;11.59;49.30
65384;BME280;51986;52.788;41.368;2023-05-16T00:04:00;99775.28;;;11.52;49.16
65384;BME280;51986;52.788;41.368;2023-05-16T00:06:27;99796.53;;;11.24;50.48
65384;BME280;51986;52.788;41.368;2023-05-16T00:08:53;99787.84;;;11.30;50.47
65384;BME280;51986;52.788;41.368;2023-05-16T00:11:20;99817.69;;;11.17;50.74
65384;BME280;51986;52.788;41.368;2023-05-16T00:13:47;99803.69;;;11.34;50.41
65384;BME280;51986;52.788;41.368;2023-05-16T00:16:14;99792.44;;;11.16;50.49
65384;BME280;51986;52.788;41.368;2023-05-16T00:18:41;99827.56;;;11.02;51.40
65384;BME280;51986;52.788;41.368;2023-05-16T00:21:08;99804.94;;;10.97;51.72
65384;BME280;51986;52.788;41.368;2023-05-16T00:23:35;99809.09;;;10.88;50.95
65384;BME280;51986;52.788;41.368;2023-05-16T00:26:02;99812.47;;;11.02;50.68
65384;BME280;51986;52.788;41.368;2023-05-16T00:28:29;99798.19;;;10.75;51.45
65384;BME280;51986;52.788;41.368;2023-05-16T00:30:56;99780.81;;;10.88;50.76
65384;BME280;51986;52.788;41.368;2023-05-16T00:33:23;99813.63;;;10.80;50.71
65384;BME280;51986;52.788;41.368;2023-05-16T00:35:50;99791.41;;;10.67;50.90
65384;BME280;51986;52.788;41.368;2023-05-16T00:38:17;99792.91;;;10.71;51.20
65384;BME280;51986;52.788;41.368;2023-05-16T00:40:44;99784.66;;;10.51;51.07
65384;BME280;51986;52.788;41.368;2023-05-16T00:43:11;99795.94;;;10.59;51.84
65384;BME280;51986;52.788;41.368;2023-05-16T00:45:38;99804.22;;;10.29;52.33
65384;BME280;51986;52.788;41.368;2023-05-16T00:48:05;99803.84;;;10.23;52.35
65384;BME280;51986;52.788;41.368;2023-05-16T00:50:32;99815.91;;;10.21;52.18
65384;BME280;51986;52.788;41.368;2023-05-16T00:53:00;99797.06;;;10.15;52.21
65384;BME280;51986;52.788;41.368;2023-05-16T00:55:27;99805.72;;;10.23;52.30
65384;BME280;51986;52.788;41.368;2023-05-16T00:57:54;99796.31;;;10.22;52.34
65384;BME280;51986;52.788;41.368;2023-05-16T01:00:22;99817.41;;;10.25;52.31
65384;BME280;51986;52.788;41.368;2023-05-16T01:02:51;99793.66;;;10.00;52.55
65384;BME280;51986;52.788;41.368;2023-05-16T01:05:19;99823.03;;;10.13;52.87
65384;BME280;51986;52.788;41.368;2023-05-16T01:07:46;99804.19;;;10.04;53.08
65384;BME280;51986;52.788;41.368;2023-05-16T01:10:15;99825.31;;;10.18;52.77
65384;BME280;51986;52.788;41.368;2023-05-16T01:13:04;99813.63;;;10.05;53.28
65384;BME280;51986;52.788;41.368;2023-05-16T01:15:52;99810.63;;;10.21;52.75
65384;BME280;51986;52.788;41.368;2023-05-16T01:18:40;99830.22;;;10.20;52.63
65384;BME280;51986;52.788;41.368;2023-05-16T01:21:15;99817.41;;;10.22;52.96
65384;BME280;51986;52.788;41.368;2023-05-16T01:23:52;99823.78;;;10.14;53.11
65384;BME280;51986;52.788;41.368;2023-05-16T01:26:26;99794.03;;;9.92;53.18
65384;BME280;51986;52.788;41.368;2023-05-16T01:28:54;99807.22;;;10.02;53.45
65384;BME280;51986;52.788;41.368;2023-05-16T01:31:22;99816.63;;;10.00;53.12
65384;BME280;51986;52.788;41.368;2023-05-16T01:33:50;99815.50;;;10.08;53.22
65384;BME280;51986;52.788;41.368;2023-05-16T01:36:32;99804.56;;;10.02;53.69
65384;BME280;51986;52.788;41.368;2023-05-16T01:42:09;99813.25;;;10.10;53.31
65384;BME280;51986;52.788;41.368;2023-05-16T01:44:49;99823.41;;;10.19;53.58
65384;BME280;51986;52.788;41.368;2023-05-16T01:47:21;99833.59;;;10.31;53.59
65384;BME280;51986;52.788;41.368;2023-05-16T01:49:57;99813.25;;;10.21;52.78
65384;BME280;51986;52.788;41.368;2023-05-16T01:52:53;99803.09;;;10.30;52.77
65384;BME280;51986;52.788;41.368;2023-05-16T01:55:49;99791.81;;;10.40;53.18
65384;BME280;51986;52.788;41.368;2023-05-16T01:58:22;99775.97;;;10.26;52.58
65384;BME280;51986;52.788;41.368;2023-05-16T02:00:55;99807.25;;;10.60;52.04
65384;BME280;51986;52.788;41.368;2023-05-16T02:03:25;99794.81;;;10.60;51.71
65384;BME280;51986;52.788;41.368;2023-05-16T02:05:52;99818.16;;;10.83;51.72
65384;BME280;51986;52.788;41.368;2023-05-16T02:08:19;99804.22;;;10.79;51.79
65384;BME280;51986;52.788;41.368;2023-05-16T02:10:49;99797.44;;;10.81;52.00
65384;BME280;51986;52.788;41.368;2023-05-16T02:13:16;99796.31;;;10.65;52.08
65384;BME280;51986;52.788;41.368;2023-05-16T02:15:43;99816.28;;;10.80;52.01
65384;BME280;51986;52.788;41.368;2023-05-16T02:18:10;99814.78;;;10.68;52.53
65384;BME280;51986;52.788;41.368;2023-05-16T02:20:37;99827.59;;;10.73;52.25
65384;BME280;51986;52.788;41.368;2023-05-16T02:23:04;99823.81;;;10.74;52.28
65384;BME280;51986;52.788;41.368;2023-05-16T02:25:31;99825.34;;;10.72;52.74
65384;BME280;51986;52.788;41.368;2023-05-16T02:27:58;99823.06;;;10.81;52.22
65384;BME280;51986;52.788;41.368;2023-05-16T02:30:25;99827.56;;;11.05;51.33
65384;BME280;51986;52.788;41.368;2023-05-16T02:32:52;99838.81;;;11.20;50.90
65384;BME280;51986;52.788;41.368;2023-05-16T02:35:19;99818.09;;;11.15;51.21
65384;BME280;51986;52.788;41.368;2023-05-16T02:37:46;99815.06;;;11.17;51.16
65384;BME280;51986;52.788;41.368;2023-05-16T02:40:13;99808.63;;;11.21;50.90
65384;BME280;51986;52.788;41.368;2023-05-16T02:42:40;99836.94;;;11.21;51.87
65384;BME280;51986;52.788;41.368;2023-05-16T02:45:08;99801.38;;;11.43;51.30
65384;BME280;51986;52.788;41.368;2023-05-16T02:47:35;99809.28;;;11.43;50.81
65384;BME280;51986;52.788;41.368;2023-05-16T02:50:02;99807.44;;;11.40;50.64
65384;BME280;51986;52.788;41.368;2023-05-16T02:52:29;99822.91;;;11.38;50.97
65384;BME280;51986;52.788;41.368;2023-05-16T02:54:56;99824.84;;;11.27;51.83
65384;BME280;51986;52.788;41.368;2023-05-16T02:57:43;99800.31;;;11.30;51.61
65384;BME280;51986;52.788;41.368;2023-05-16T03:00:11;99817.56;;;11.52;51.19
65384;BME280;51986;52.788;41.368;2023-05-16T03:02:38;99803.91;;;11.68;50.85
65384;BME280;51986;52.788;41.368;2023-05-16T03:05:06;99803.06;;;11.89;49.85
65384;BME280;51986;52.788;41.368;2023-05-16T03:07:33;99846.72;;;12.12;49.84
65384;BME280;51986;52.788;41.368;2023-05-16T03:10:04;99802.66;;;12.43;48.64
65384;BME280;51986;52.788;41.368;2023-05-16T03:12:31;99812.50;;;12.83;47.53
65384;BME280;51986;52.788;41.368;2023-05-16T03:14:58;99819.84;;;13.41;46.59
65384;BME280;51986;52.788;41.368;2023-05-16T03:17:25;99824.72;;;13.11;47.42
65384;BME280;51986;52.788;41.368;2023-05-16T03:19:52;99818.81;;;13.31;47.02
65384;BME280;51986;52.788;41.368;2023-05-16T03:22:19;99808.84;;;13.11;46.72
65384;BME280;51986;52.788;41.368;2023-05-16T03:24:46;99817.66;;;13.32;46.91
65384;BME280;51986;52.788;41.368;2023-05-16T03:27:13;99825.28;;;14.14;44.81
65384;BME280;51986;52.788;41.368;2023-05-16T03:29:41;99815.97;;;15.89;40.91
65384;BME280;51986;52.788;41.368;2023-05-16T03:32:09;99824.47;;;16.94;38.79
65384;BME280;51986;52.788;41.368;2023-05-16T03:34:36;99823.22;;;17.54;37.29
65384;BME280;51986;52.788;41.368;2023-05-16T03:37:03;99805.47;;;18.80;35.06
65384;BME280;51986;52.788;41.368;2023-05-16T03:39:30;99812.63;;;19.05;34.44
65384;BME280;51986;52.788;41.368;2023-05-16T03:41:57;99814.53;;;19.58;33.20
65384;BME280;51986;52.788;41.368;2023-05-16T03:44:24;99801.03;;;20.20;32.99
65384;BME280;51986;52.788;41.368;2023-05-16T03:46:51;99800.31;;;20.93;31.49
65384;BME280;51986;52.788;41.368;2023-05-16T03:49:19;99870.22;;;21.59;31.11
65384;BME280;51986;52.788;41.368;2023-05-16T03:51:46;99826.81;;;21.09;31.28
65384;BME280;51986;52.788;41.368;2023-05-16T03:54:13;99822.41;;;21.82;30.34
65384;BME280;51986;52.788;41.368;2023-05-16T03:59:25;99794.28;;;23.08;28.18
65384;BME280;51986;52.788;41.368;2023-05-16T04:01:52;99813.09;;;22.93;28.40
65384;BME280;51986;52.788;41.368;2023-05-16T04:04:19;99800.69;;;22.96;28.68
65384;BME280;51986;52.788;41.368;2023-05-16T04:06:46;99850.97;;;23.84;27.30
65384;BME280;51986;52.788;41.368;2023-05-16T04:09:32;99806.78;;;24.37;27.43
65384;BME280;51986;52.788;41.368;2023-05-16T04:11:59;99796.63;;;24.47;26.11
65384;BME280;51986;52.788;41.368;2023-05-16T04:14:26;99797.50;;;25.16;25.40
65384;BME280;51986;52.788;41.368;2023-05-16T04:16:53;99793.31;;;25.15;24.99
65384;BME280;51986;52.788;41.368;2023-05-16T04:19:20;99771.31;;;25.65;24.47
65384;BME280;51986;52.788;41.368;2023-05-16T04:21:47;99792.28;;;24.81;25.32
65384;BME280;51986;52.788;41.368;2023-05-16T04:24:15;99817.53;;;24.52;25.48
65384;BME280;51986;52.788;41.368;2023-05-16T04:26:42;99799.22;;;23.45;27.33
65384;BME280;51986;52.788;41.368;2023-05-16T04:29:27;99794.00;;;24.32;25.96
65384;BME280;51986;52.788;41.368;2023-05-16T04:31:54;99806.94;;;24.74;25.41
65384;BME280;51986;52.788;41.368;2023-05-16T04:34:21;99817.88;;;25.17;25.07
65384;BME280;51986;52.788;41.368;2023-05-16T04:36:48;99817.88;;;24.39;26.09
65384;BME280;51986;52.788;41.368;2023-05-16T04:39:34;99811.69;;;24.33;25.33
65384;BME280;51986;52.788;41.368;2023-05-16T04:42:02;99832.63;;;24.23;26.22
65384;BME280;51986;52.788;41.368;2023-05-16T04:44:29;99811.16;;;24.55;25.89
65384;BME280;51986;52.788;41.368;2023-05-16T04:46:56;99817.03;;;24.13;26.27
65384;BME280;51986;52.788;41.368;2023-05-16T04:49:23;99844.34;;;24.41;25.73
65384;BME280;51986;52.788;41.368;2023-05-16T04:51:50;99833.03;;;23.31;27.87
65384;BME280;51986;52.788;41.368;2023-05-16T04:54:17;99832.28;;;23.30;28.29
65384;BME280;51986;52.788;41.368;2023-05-16T04:56:44;99822.94;;;22.96;28.73
65384;BME280;51986;52.788;41.368;2023-05-16T04:59:11;99819.88;;;22.89;27.38
65384;BME280;51986;52.788;41.368;2023-05-16T05:01:38;99830.72;;;21.60;28.67
65384;BME280;51986;52.788;41.368;2023-05-16T05:04:05;99824.75;;;20.67;30.85
65384;BME280;51986;52.788;41.368;2023-05-16T05:06:32;99814.75;;;21.04;30.77
65384;BME280;51986;52.788;41.368;2023-05-16T05:08:59;99799.16;;;20.75;30.61
65384;BME280;51986;52.788;41.368;2023-05-16T05:11:26;99808.31;;;20.01;31.44
65384;BME280;51986;52.788;41.368;2023-05-16T05:13:53;99792.44;;;20.71;30.85
65384;BME280;51986;52.788;41.368;2023-05-16T05:16:20;99823.84;;;20.52;31.44
65384;BME280;51986;52.788;41.368;2023-05-16T05:18:47;99813.16;;;20.61;31.14
65384;BME280;51986;52.788;41.368;2023-05-16T05:21:14;99818.13;;;19.95;32.41
65384;BME280;51986;52.788;41.368;2023-05-16T05:23:41;99833.34;;;19.76;33.13
65384;BME280;51986;52.788;41.368;2023-05-16T05:26:08;99832.09;;;19.59;32.90
65384;BME280;51986;52.788;41.368;2023-05-16T05:28:35;99829.53;;;19.86;32.30
65384;BME280;51986;52.788;41.368;2023-05-16T05:31:03;99811.75;;;20.01;31.73
65384;BME280;51986;52.788;41.368;2023-05-16T05:33:30;99836.41;;;20.83;31.07
65384;BME280;51986;52.788;41.368;2023-05-16T05:35:57;99836.34;;;20.46;31.41
65384;BME280;51986;52.788;41.368;2023-05-16T05:38:24;99808.06;;;20.17;31.74
65384;BME280;51986;52.788;41.368;2023-05-16T05:40:51;99824.81;;;19.99;31.15
65384;BME280;51986;52.788;41.368;2023-05-16T05:43:18;99829.53;;;19.86;31.17
65384;BME280;51986;52.788;41.368;2023-05-16T05:45:45;99811.88;;;19.98;30.59
65384;BME280;51986;52.788;41.368;2023-05-16T05:48:12;99837.38;;;20.39;30.48
65384;BME280;51986;52.788;41.368;2023-05-16T05:50:40;99842.47;;;20.46;30.03
65384;BME280;51986;52.788;41.368;2023-05-16T05:53:07;99845.31;;;20.61;29.55
65384;BME280;51986;52.788;41.368;2023-05-16T05:55:34;99831.31;;;20.75;29.84
65384;BME280;51986;52.788;41.368;2023-05-16T05:58:01;99859.00;;;20.63;30.11
65384;BME280;51986;52.788;41.368;2023-05-16T06:00:30;99846.66;;;21.02;28.94
65384;BME280;51986;52.788;41.368;2023-05-16T06:02:57;99838.13;;;21.04;27.49
65384;BME280;51986;52.788;41.368;2023-05-16T06:05:25;99827.06;;;21.20;27.71
65384;BME280;51986;52.788;41.368;2023-05-16T06:07:52;99845.22;;;21.35;27.03
65384;BME280;51986;52.788;41.368;2023-05-16T06:10:19;99839.16;;;21.16;27.78
65384;BME280;51986;52.788;41.368;2023-05-16T06:12:46;99818.03;;;20.99;27.77
65384;BME280;51986;52.788;41.368;2023-05-16T06:15:13;99823.53;;;20.96;27.30
65384;BME280;51986;52.788;41.368;2023-05-16T06:17:40;99842.63;;;20.98;27.33
65384;BME280;51986;52.788;41.368;2023-05-16T06:20:07;99832.38;;;21.48;26.86
65384;BME280;51986;52.788;41.368;2023-05-16T06:22:34;99846.03;;;21.68;26.41
65384;BME280;51986;52.788;41.368;2023-05-16T06:25:01;99844.94;;;21.33;27.53
65384;BME280;51986;52.788;41.368;2023-05-16T06:27:28;99823.66;;;21.20;27.59
65384;BME280;51986;52.788;41.368;2023-05-16T06:29:55;99831.03;;;20.83;27.16
65384;BME280;51986;52.788;41.368;2023-05-16T06:32:22;99817.63;;;20.83;27.45
65384;BME280;51986;52.788;41.368;2023-05-16T06:34:49;99819.34;;;21.13;27.62
65384;BME280;51986;52.788;41.368;2023-05-16T06:37:16;99820.69;;;21.09;26.50
65384;BME280;51986;52.788;41.368;2023-05-16T06:39:43;99839.16;;;21.67;25.70
65384;BME280;51986;52.788;41.368;2023-05-16T06:42:10;99819.56;;;21.52;26.54
65384;BME280;51986;52.788;41.368;2023-05-16T06:44:37;99820.28;;;20.92;27.22
65384;BME280;51986;52.788;41.368;2023-05-16T06:47:04;99841.47;;;19.94;27.96
65384;BME280;51986;52.788;41.368;2023-05-16T06:49:32;99821.31;;;20.58;27.44
65384;BME280;51986;52.788;41.368;2023-05-16T06:51:59;99849.75;;;20.55;26.68
65384;BME280;51986;52.788;41.368;2023-05-16T06:54:26;99843.94;;;20.38;26.68
65384;BME280;51986;52.788;41.368;2023-05-16T06:56:53;99848.56;;;20.38;27.70
65384;BME280;51986;52.788;41.368;2023-05-16T06:59:20;99826.09;;;20.90;26.33
65384;BME280;51986;52.788;41.368;2023-05-16T07:01:47;99828.00;;;21.08;26.94
65384;BME280;51986;52.788;41.368;2023-05-16T07:04:14;99812.47;;;21.21;26.42
65384;BME280;51986;52.788;41.368;2023-05-16T07:06:42;99817.59;;;20.27;27.39
65384;BME280;51986;52.788;41.368;2023-05-16T07:09:09;99819.69;;;20.42;27.32
65384;BME280;51986;52.788;41.368;2023-05-16T07:11:36;99848.69;;;20.43;27.15
65384;BME280;51986;52.788;41.368;2023-05-16T07:14:03;99837.66;;;19.42;27.84
65384;BME280;51986;52.788;41.368;2023-05-16T07:16:30;99836.69;;;19.89;26.70
65384;BME280;51986;52.788;41.368;2023-05-16T07:18:57;99845.41;;;20.39;26.27
65384;BME280;51986;52.788;41.368;2023-05-16T07:21:24;99824.16;;;20.63;26.38
65384;BME280;51986;52.788;41.368;2023-05-16T07:23:51;99825.34;;;20.90;26.51
65384;BME280;51986;52.788;41.368;2023-05-16T07:26:18;99833.41;;;20.81;25.93
65384;BME280;51986;52.788;41.368;2023-05-16T07:28:45;99813.00;;;20.92;25.68
65384;BME280;51986;52.788;41.368;2023-05-16T07:31:12;99837.66;;;21.24;24.53
65384;BME280;51986;52.788;41.368;2023-05-16T07:33:39;99809.47;;;21.28;25.20
65384;BME280;51986;52.788;41.368;2023-05-16T07:36:06;99812.81;;;20.96;24.47
65384;BME280;51986;52.788;41.368;2023-05-16T07:38:42;99822.31;;;21.15;24.53
65384;BME280;51986;52.788;41.368;2023-05-16T07:41:09;99808.06;;;21.85;24.25
65384;BME280;51986;52.788;41.368;2023-05-16T07:43:36;99823.94;;;21.22;24.56
65384;BME280;51986;52.788;41.368;2023-05-16T07:46:04;99818.44;;;21.68;24.69
65384;BME280;51986;52.788;41.368;2023-05-16T07:48:31;99818.94;;;20.32;25.56
65384;BME280;51986;52.788;41.368;2023-05-16T07:50:58;99824.56;;;21.17;25.09
65384;BME280;51986;52.788;41.368;2023-05-16T07:53:25;99808.31;;;21.63;24.76
65384;BME280;51986;52.788;41.368;2023-05-16T07:55:52;99817.78;;;21.40;25.03
65384;BME280;51986;52.788;41.368;2023-05-16T07:58:19;99820.34;;;21.76;24.27
65384;BME280;51986;52.788;41.368;2023-05-16T08:00:47;99774.75;;;20.64;24.60
65384;BME280;51986;52.788;41.368;2023-05-16T08:03:14;99816.25;;;20.41;25.31
65384;BME280;51986;52.788;41.368;2023-05-16T08:05:42;99840.84;;;20.86;24.66
65384;BME280;51986;52.788;41.368;2023-05-16T08:08:09;99829.97;;;20.71;25.16
65384;BME280;51986;52.788;41.368;2023-05-16T08:10:36;99817.59;;;20.92;24.50
65384;BME280;51986;52.788;41.368;2023-05-16T08:13:03;99814.56;;;21.26;24.82
65384;BME280;51986;52.788;41.368;2023-05-16T08:15:30;99812.50;;;21.12;24.18
65384;BME280;51986;52.788;41.368;2023-05-16T08:17:57;99821.56;;;21.66;24.39
65384;BME280;51986;52.788;41.368;2023-05-16T08:20:25;99789.25;;;21.09;24.95
65384;BME280;51986;52.788;41.368;2023-05-16T08:22:53;99795.13;;;21.50;25.44
65384;BME280;51986;52.788;41.368;2023-05-16T08:25:20;99829.94;;;21.59;25.55
65384;BME280;51986;52.788;41.368;2023-05-16T08:27:48;99807.50;;;22.28;23.67
65384;BME280;51986;52.788;41.368;2023-05-16T08:30:15;99799.44;;;22.82;23.19
65384;BME280;51986;52.788;41.368;2023-05-16T08:32:42;99844.75;;;23.28;22.57
65384;BME280;51986;52.788;41.368;2023-05-16T08:35:10;99809.53;;;22.72;22.61
65384;BME280;51986;52.788;41.368;2023-05-16T08:37:37;99802.63;;;22.95;22.67
65384;BME280;51986;52.788;41.368;2023-05-16T08:40:08;99794.53;;;22.27;22.97
65384;BME280;51986;52.788;41.368;2023-05-16T08:42:36;99816.09;;;22.56;22.78
65384;BME280;51986;52.788;41.368;2023-05-16T08:45:04;99785.25;;;22.81;22.70
65384;BME280;51986;52.788;41.368;2023-05-16T08:47:31;99798.50;;;22.55;23.08
65384;BME280;51986;52.788;41.368;2023-05-16T08:49:59;99788.78;;;22.88;22.69
65384;BME280;51986;52.788;41.368;2023-05-16T08:52:30;99816.59;;;22.70;22.33
65384;BME280;51986;52.788;41.368;2023-05-16T08:55:01;99798.66;;;23.41;22.03
65384;BME280;51986;52.788;41.368;2023-05-16T08:57:37;99796.88;;;22.49;22.29
65384;BME280;51986;52.788;41.368;2023-05-16T09:00:06;99812.59;;;22.65;22.39
65384;BME280;51986;52.788;41.368;2023-05-16T09:02:34;99802.09;;;22.14;23.66
65384;BME280;51986;52.788;41.368;2023-05-16T09:05:02;99804.97;;;22.01;24.61
65384;BME280;51986;52.788;41.368;2023-05-16T09:07:30;99812.13;;;21.38;25.93
65384;BME280;51986;52.788;41.368;2023-05-16T09:09:57;99817.91;;;21.54;24.02
65384;BME280;51986;52.788;41.368;2023-05-16T09:12:24;99814.44;;;22.20;24.20
65384;BME280;51986;52.788;41.368;2023-05-16T09:14:51;99808.09;;;22.33;23.94
65384;BME280;51986;52.788;41.368;2023-05-16T09:17:18;99810.78;;;22.86;24.11
65384;BME280;51986;52.788;41.368;2023-05-16T09:20:22;99825.44;;;21.98;23.85
65384;BME280;51986;52.788;41.368;2023-05-16T09:22:54;99793.78;;;21.45;24.47
65384;BME280;51986;52.788;41.368;2023-05-16T09:25:23;99819.59;;;21.34;25.23
65384;BME280;51986;52.788;41.368;2023-05-16T09:27:54;99800.22;;;21.72;24.53
65384;BME280;51986;52.788;41.368;2023-05-16T09:30:23;99810.06;;;21.42;25.11
65384;BME280;51986;52.788;41.368;2023-05-16T09:32:53;99788.31;;;21.31;25.21
65384;BME280;51986;52.788;41.368;2023-05-16T09:35:39;99810.75;;;22.09;24.38
65384;BME280;51986;52.788;41.368;2023-05-16T09:38:17;99818.50;;;22.69;22.31
65384;BME280;51986;52.788;41.368;2023-05-16T09:40:45;99810.88;;;22.92;22.90
65384;BME280;51986;52.788;41.368;2023-05-16T09:43:14;99786.47;;;22.95;22.24
65384;BME280;51986;52.788;41.368;2023-05-16T09:45:47;99818.38;;;23.17;22.19
65384;BME280;51986;52.788;41.368;2023-05-16T09:48:15;99799.88;;;23.90;21.85
65384;BME280;51986;52.788;41.368;2023-05-16T09:50:50;99789.66;;;23.79;21.79
65384;BME280;51986;52.788;41.368;2023-05-16T09:53:26;99804.59;;;22.41;22.95
65384;BME280;51986;52.788;41.368;2023-05-16T09:56:05;99797.69;;;22.40;23.22
65384;BME280;51986;52.788;41.368;2023-05-16T10:01:19;99774.13;;;22.20;23.35
65384;BME280;51986;52.788;41.368;2023-05-16T10:03:46;99794.38;;;22.45;23.51
65384;BME280;51986;52.788;41.368;2023-05-16T10:06:14;99809.97;;;22.41;22.64
65384;BME280;51986;52.788;41.368;2023-05-16T10:08:42;99789.81;;;23.05;22.56
65384;BME280;51986;52.788;41.368;2023-05-16T10:11:10;99776.25;;;23.14;21.43
65384;BME280;51986;52.788;41.368;2023-05-16T10:16:25;99765.34;;;23.03;23.42
65384;BME280;51986;52.788;41.368;2023-05-16T10:19:10;99747.88;;;23.13;22.85
65384;BME280;51986;52.788;41.368;2023-05-16T10:21:39;99751.69;;;22.92;22.59
65384;BME280;51986;52.788;41.368;2023-05-16T10:24:10;99788.59;;;23.71;21.67
65384;BME280;51986;52.788;41.368;2023-05-16T10:26:40;99763.56;;;23.85;20.99
65384;BME280;51986;52.788;41.368;2023-05-16T10:31:53;99776.16;;;24.34;20.82
65384;BME280;51986;52.788;41.368;2023-05-16T10:34:21;99763.28;;;23.83;22.79
65384;BME280;51986;52.788;41.368;2023-05-16T10:36:49;99762.50;;;22.53;24.22
65384;BME280;51986;52.788;41.368;2023-05-16T10:39:35;99772.59;;;22.43;23.88
65384;BME280;51986;52.788;41.368;2023-05-16T10:42:05;99775.81;;;22.18;24.33
65384;BME280;51986;52.788;41.368;2023-05-16T10:44:32;99777.09;;;22.22;23.50
65384;BME280;51986;52.788;41.368;2023-05-16T10:46:59;99778.22;;;22.30;23.95
65384;BME280;51986;52.788;41.368;2023-05-16T10:49:26;99774.59;;;23.02;23.93
65384;BME280;51986;52.788;41.368;2023-05-16T10:54:51;99783.69;;;23.19;22.26
65384;BME280;51986;52.788;41.368;2023-05-16T10:57:21;99751.28;;;22.69;21.96
65384;BME280;51986;52.788;41.368;2023-05-16T10:59:50;99780.50;;;22.47;23.34
65384;BME280;51986;52.788;41.368;2023-05-16T11:02:27;99753.47;;;22.95;22.77
65384;BME280;51986;52.788;41.368;2023-05-16T11:04:56;99748.59;;;22.54;23.88
65384;BME280;51986;52.788;41.368;2023-05-16T11:07:25;99745.66;;;22.14;24.36
65384;BME280;51986;52.788;41.368;2023-05-16T11:15:20;99772.16;;;21.97;24.50
65384;BME280;51986;52.788;41.368;2023-05-16T11:20:35;99746.94;;;22.72;23.97
65384;BME280;51986;52.788;41.368;2023-05-16T11:25:44;99751.66;;;22.62;23.96
65384;BME280;51986;52.788;41.368;2023-05-16T11:28:31;99753.09;;;21.95;24.72
65384;BME280;51986;52.788;41.368;2023-05-16T11:30:58;99748.06;;;21.88;24.39
65384;BME280;51986;52.788;41.368;2023-05-16T11:33:26;99747.88;;;21.91;24.38
65384;BME280;51986;52.788;41.368;2023-05-16T11:36:05;99715.75;;;22.36;24.18
65384;BME280;51986;52.788;41.368;2023-05-16T11:38:42;99727.91;;;22.07;23.94
65384;BME280;51986;52.788;41.368;2023-05-16T11:41:09;99737.31;;;22.80;23.46
65384;BME280;51986;52.788;41.368;2023-05-16T11:46:05;99721.00;;;23.33;22.96
65384;BME280;51986;52.788;41.368;2023-05-16T11:48:32;99728.50;;;22.79;24.17
65384;BME280;51986;52.788;41.368;2023-05-16T11:51:02;99724.88;;;22.82;24.56
65384;BME280;51986;52.788;41.368;2023-05-16T11:53:30;99707.53;;;22.54;24.70
65384;BME280;51986;52.788;41.368;2023-05-16T11:55:58;99730.91;;;22.09;24.88
65384;BME280;51986;52.788;41.368;2023-05-16T11:58:25;99717.28;;;21.98;24.73
65384;BME280;51986;52.788;41.368;2023-05-16T12:00:53;99707.34;;;21.89;24.59
65384;BME280;51986;52.788;41.368;2023-05-16T12:06:06;99713.94;;;22.42;24.10
65384;BME280;51986;52.788;41.368;2023-05-16T12:08:36;99712.06;;;22.77;24.14
65384;BME280;51986;52.788;41.368;2023-05-16T12:11:04;99699.16;;;21.84;25.19
65384;BME280;51986;52.788;41.368;2023-05-16T12:13:49;99718.19;;;22.34;23.98
65384;BME280;51986;52.788;41.368;2023-05-16T12:16:17;99687.91;;;21.46;24.65
65384;BME280;51986;52.788;41.368;2023-05-16T12:18:44;99699.88;;;21.45;25.38
65384;BME280;51986;52.788;41.368;2023-05-16T12:21:12;99700.25;;;21.77;24.07
65384;BME280;51986;52.788;41.368;2023-05-16T12:23:41;99705.84;;;21.88;25.24
65384;BME280;51986;52.788;41.368;2023-05-16T12:26:08;99706.38;;;22.16;24.36
65384;BME280;51986;52.788;41.368;2023-05-16T12:28:35;99706.28;;;21.87;24.35
65384;BME280;51986;52.788;41.368;2023-05-16T12:31:02;99697.78;;;21.88;25.03
65384;BME280;51986;52.788;41.368;2023-05-16T12:33:29;99703.97;;;21.79;24.35
65384;BME280;51986;52.788;41.368;2023-05-16T12:35:57;99707.41;;;21.80;25.49
65384;BME280;51986;52.788;41.368;2023-05-16T12:38:27;99706.81;;;21.19;26.07
65384;BME280;51986;52.788;41.368;2023-05-16T12:40:58;99695.66;;;21.44;25.45
65384;BME280;51986;52.788;41.368;2023-05-16T12:43:25;99685.84;;;21.08;25.47
65384;BME280;51986;52.788;41.368;2023-05-16T12:45:59;99694.34;;;21.40;25.23
65384;BME280;51986;52.788;41.368;2023-05-16T12:48:33;99704.34;;;21.39;25.19
65384;BME280;51986;52.788;41.368;2023-05-16T12:51:17;99680.06;;;21.82;25.02
65384;BME280;51986;52.788;41.368;2023-05-16T12:53:48;99701.66;;;21.87;25.15
65384;BME280;51986;52.788;41.368;2023-05-16T12:56:40;99688.22;;;21.87;24.40
65384;BME280;51986;52.788;41.368;2023-05-16T12:59:07;99700.78;;;22.44;24.02
65384;BME280;51986;52.788;41.368;2023-05-16T13:01:40;99711.34;;;22.77;23.75
65384;BME280;51986;52.788;41.368;2023-05-16T13:04:10;99709.13;;;22.61;24.22
65384;BME280;51986;52.788;41.368;2023-05-16T13:06:40;99693.44;;;22.59;24.52
65384;BME280;51986;52.788;41.368;2023-05-16T13:09:27;99686.34;;;22.02;24.89
65384;BME280;51986;52.788;41.368;2023-05-16T13:12:00;99687.34;;;22.05;25.40
65384;BME280;51986;52.788;41.368;2023-05-16T13:14:27;99703.72;;;21.68;25.45
65384;BME280;51986;52.788;41.368;2023-05-16T13:16:55;99697.97;;;22.23;24.92
65384;BME280;51986;52.788;41.368;2023-05-16T13:19:21;99695.00;;;22.21;24.13
65384;BME280;51986;52.788;41.368;2023-05-16T13:21:51;99688.19;;;22.11;24.50
65384;BME280;51986;52.788;41.368;2023-05-16T13:24:18;99700.50;;;22.03;24.95
65384;BME280;51986;52.788;41.368;2023-05-16T13:26:45;99688.53;;;22.43;24.81
65384;BME280;51986;52.788;41.368;2023-05-16T13:29:14;99688.63;;;22.48;24.89
65384;BME280;51986;52.788;41.368;2023-05-16T13:31:41;99705.03;;;22.36;24.58
65384;BME280;51986;52.788;41.368;2023-05-16T13:34:08;99681.88;;;21.99;25.16